Terminal Aerodrome Forecast
Issued by NWS Mt. Holly, NJ

Home | Current Version | Previous Version | Text Only | Print | Product List | Glossary On
Versions: 1 2 3 4 5 6 7 8 9 10 11 12 13 14 15 16 17 18 19
000
FTUS41 KPHI 011100
TAFRDG
TAF
KRDG 011132Z 0112/0212 20003KT 6SM BR SCT025 BKN060
      TEMPO 0112/0114 3SM BR BKN025
     FM011500 25005KT P6SM SCT025 BKN060
     FM011800 24008KT P6SM VCSH BKN040
      TEMPO 0118/0122 5SM -SHRA
     FM020000 24005KT P6SM SCT040 BKN100
     FM020200 VRB03KT P6SM FEW050 SCT100=

USA.gov is the U.S. government's official web portal to all federal, state and local government web resources and services.